createdAt,value
2023-02-08T00:01:24.544Z,11.00
2023-02-08T00:03:52.950Z,13.40
2023-02-08T00:06:21.222Z,14.50
2023-02-08T00:08:49.783Z,10.40
2023-02-08T00:11:18.479Z,12.10
2023-02-08T00:13:46.759Z,12.00
2023-02-08T00:16:15.693Z,12.20
2023-02-08T00:18:44.023Z,12.30
2023-02-08T00:21:14.181Z,11.70
2023-02-08T00:23:43.746Z,13.80
2023-02-08T00:26:12.027Z,16.50
2023-02-08T00:28:40.921Z,14.00
2023-02-08T00:31:09.287Z,16.50
2023-02-08T00:33:37.786Z,11.30
2023-02-08T00:36:08.688Z,12.90
2023-02-08T00:38:36.882Z,13.10
2023-02-08T00:41:05.690Z,12.60
2023-02-08T00:43:34.050Z,13.30
2023-02-08T00:46:02.635Z,16.10
2023-02-08T00:48:31.942Z,12.60
2023-02-08T00:51:06.044Z,14.00
2023-02-08T00:53:38.334Z,12.10
2023-02-08T00:56:07.708Z,12.20
2023-02-08T00:58:37.943Z,13.10
2023-02-08T01:01:06.489Z,11.80
2023-02-08T01:03:35.658Z,13.40
2023-02-08T01:06:16.853Z,15.00
2023-02-08T01:08:47.218Z,19.00
2023-02-08T01:11:25.485Z,9.20
2023-02-08T01:13:57.436Z,15.10
2023-02-08T01:16:28.071Z,9.40
2023-02-08T01:18:57.590Z,16.10
2023-02-08T01:21:27.613Z,14.00
2023-02-08T01:23:55.745Z,17.60
2023-02-08T01:26:24.447Z,12.80
2023-02-08T01:28:53.617Z,10.50
2023-02-08T01:31:29.185Z,14.70
2023-02-08T01:33:58.185Z,16.20
2023-02-08T01:36:27.047Z,12.60
2023-02-08T01:38:55.286Z,17.00
2023-02-08T01:41:29.235Z,13.50
2023-02-08T01:43:57.602Z,15.40
2023-02-08T01:46:26.199Z,16.20
2023-02-08T01:48:56.319Z,26.10
2023-02-08T01:51:26.950Z,12.40
2023-02-08T01:53:55.892Z,12.70
2023-02-08T01:56:33.433Z,16.30
2023-02-08T01:59:03.232Z,13.10
2023-02-08T02:01:31.766Z,15.10
2023-02-08T02:04:02.357Z,12.70
2023-02-08T02:06:34.849Z,12.70
2023-02-08T02:09:06.491Z,11.60
2023-02-08T02:11:34.944Z,12.00
2023-02-08T02:14:03.577Z,10.40
2023-02-08T02:16:32.132Z,14.70
2023-02-08T02:19:00.519Z,17.90
2023-02-08T02:21:39.239Z,13.80
2023-02-08T02:24:32.503Z,13.80
2023-02-08T02:27:03.441Z,15.30
2023-02-08T02:29:36.636Z,17.20
2023-02-08T02:32:33.098Z,9.90
2023-02-08T02:35:12.266Z,7.10
2023-02-08T02:38:14.579Z,14.80
2023-02-08T02:41:07.256Z,12.50
2023-02-08T02:43:48.331Z,15.00
2023-02-08T02:46:37.529Z,12.40
2023-02-08T02:49:26.229Z,11.70
2023-02-08T02:52:16.626Z,13.40
2023-02-08T02:54:53.142Z,13.20
2023-02-08T02:57:26.028Z,16.10
2023-02-08T02:59:54.565Z,15.70
2023-02-08T03:02:22.842Z,13.20
2023-02-08T03:04:53.473Z,10.40
2023-02-08T03:07:54.966Z,10.70
2023-02-08T03:10:49.121Z,9.60
2023-02-08T03:14:02.866Z,7.60
2023-02-08T03:16:53.874Z,14.50
2023-02-08T03:19:43.342Z,10.50
2023-02-08T03:22:23.804Z,8.70
2023-02-08T03:24:55.869Z,9.10
2023-02-08T03:28:02.011Z,11.30
2023-02-08T03:30:31.338Z,9.30
2023-02-08T03:33:09.990Z,12.20
2023-02-08T03:36:03.470Z,9.50
2023-02-08T03:38:35.076Z,11.50
2023-02-08T03:41:04.894Z,17.10
2023-02-08T03:43:38.388Z,8.50
2023-02-08T03:46:12.371Z,15.50
2023-02-08T03:48:42.672Z,10.50
2023-02-08T03:51:10.799Z,27.70
2023-02-08T03:53:40.649Z,14.40
2023-02-08T03:56:15.710Z,15.30
2023-02-08T03:58:54.166Z,12.60
2023-02-08T04:01:29.482Z,11.60
2023-02-08T04:03:57.781Z,10.10
2023-02-08T04:06:26.058Z,10.80
2023-02-08T04:08:54.334Z,12.30
2023-02-08T04:11:22.507Z,10.90
2023-02-08T04:13:51.306Z,18.60
2023-02-08T04:16:19.530Z,16.60
2023-02-08T04:18:47.946Z,12.30
2023-02-08T04:21:16.736Z,16.60
2023-02-08T04:23:45.347Z,9.20
2023-02-08T04:26:13.856Z,14.50
2023-02-08T04:28:42.057Z,18.40
2023-02-08T04:31:10.732Z,16.10
2023-02-08T04:33:39.369Z,16.50
2023-02-08T04:36:08.175Z,19.20
2023-02-08T04:38:36.574Z,18.60
2023-02-08T04:41:05.112Z,12.20
2023-02-08T04:43:33.316Z,14.00
2023-02-08T04:46:02.103Z,11.20
2023-02-08T04:48:30.449Z,15.30
2023-02-08T04:50:59.143Z,13.30
2023-02-08T04:53:27.413Z,20.90
2023-02-08T04:55:55.691Z,18.90
2023-02-08T04:58:23.973Z,20.10
2023-02-08T05:00:52.456Z,17.10
2023-02-08T05:03:20.792Z,19.40
2023-02-08T05:05:57.666Z,23.60
2023-02-08T05:08:26.593Z,14.90
2023-02-08T05:10:55.216Z,20.70
2023-02-08T05:13:23.345Z,16.70
2023-02-08T05:15:51.819Z,16.40
2023-02-08T05:18:20.730Z,16.80
2023-02-08T05:20:58.702Z,17.40
2023-02-08T05:23:27.419Z,16.60
2023-02-08T05:25:56.101Z,23.10
2023-02-08T05:28:24.424Z,19.70
2023-02-08T05:30:52.773Z,17.40
2023-02-08T05:33:21.545Z,13.50
2023-02-08T05:35:49.926Z,17.50
2023-02-08T05:38:18.157Z,16.90
2023-02-08T05:40:46.680Z,26.90
2023-02-08T05:43:15.267Z,18.60
2023-02-08T05:45:43.560Z,13.00
2023-02-08T05:48:12.038Z,19.20
2023-02-08T05:50:40.978Z,13.70
2023-02-08T05:53:11.033Z,26.00
2023-02-08T05:55:39.481Z,14.90
2023-02-08T05:58:07.892Z,15.50
2023-02-08T06:00:37.562Z,17.50
2023-02-08T06:03:06.423Z,20.90
2023-02-08T06:05:34.767Z,15.40
2023-02-08T06:08:03.251Z,12.90
2023-02-08T06:10:32.244Z,13.00
2023-02-08T06:13:01.683Z,12.60
2023-02-08T06:15:30.643Z,24.30
2023-02-08T06:17:59.397Z,22.00
2023-02-08T06:20:27.603Z,15.60
2023-02-08T06:22:56.438Z,23.50
2023-02-08T06:25:24.679Z,20.00
2023-02-08T06:27:53.492Z,24.20
2023-02-08T06:30:22.259Z,43.20
2023-02-08T06:32:50.673Z,17.80
2023-02-08T06:35:19.519Z,16.40
2023-02-08T06:37:47.884Z,14.70
2023-02-08T06:40:17.118Z,16.30
2023-02-08T06:42:47.420Z,14.70
2023-02-08T06:45:15.809Z,17.20
2023-02-08T06:47:44.178Z,11.40
2023-02-08T06:50:12.659Z,13.40
2023-02-08T06:52:41.208Z,22.30
2023-02-08T06:55:09.624Z,12.00
2023-02-08T06:57:38.411Z,12.30
2023-02-08T07:00:07.414Z,9.90
2023-02-08T07:02:36.055Z,16.00
2023-02-08T07:05:04.779Z,14.30
2023-02-08T07:07:34.189Z,27.00
2023-02-08T07:10:02.468Z,16.60
2023-02-08T07:12:36.990Z,15.50
2023-02-08T07:15:05.573Z,16.40
2023-02-08T07:17:34.149Z,14.60
2023-02-08T07:20:02.754Z,22.30
2023-02-08T07:22:31.091Z,23.60
2023-02-08T07:24:59.293Z,16.80
2023-02-08T07:27:27.869Z,17.90
2023-02-08T07:29:56.247Z,25.80
2023-02-08T07:32:24.733Z,19.80
2023-02-08T07:34:54.440Z,12.20
2023-02-08T07:37:22.824Z,16.50
2023-02-08T07:39:51.304Z,19.20
2023-02-08T07:42:19.464Z,16.70
2023-02-08T07:44:54.513Z,11.30
2023-02-08T07:47:22.795Z,12.70
2023-02-08T07:49:51.170Z,13.00
2023-02-08T07:52:19.452Z,20.30
2023-02-08T07:54:47.933Z,14.00
2023-02-08T07:57:21.243Z,19.80
2023-02-08T07:59:49.318Z,17.40
2023-02-08T08:02:18.815Z,16.10
2023-02-08T08:04:47.384Z,23.10
2023-02-08T08:07:16.174Z,18.80
2023-02-08T08:09:44.710Z,20.90
2023-02-08T08:12:12.833Z,29.10
2023-02-08T08:14:41.929Z,19.00
2023-02-08T08:17:10.305Z,24.70
2023-02-08T08:19:40.129Z,20.10
2023-02-08T08:22:08.607Z,12.70
2023-02-08T08:24:37.494Z,19.80
2023-02-08T08:27:06.403Z,25.50
2023-02-08T08:29:37.615Z,15.90
2023-02-08T08:32:07.386Z,12.10
2023-02-08T08:34:35.513Z,13.70
2023-02-08T08:37:03.901Z,14.30
2023-02-08T08:39:32.287Z,18.70
2023-02-08T08:42:00.881Z,28.40
2023-02-08T08:44:29.233Z,24.50
2023-02-08T08:46:57.721Z,22.70
2023-02-08T08:49:26.922Z,16.20
2023-02-08T08:51:55.610Z,17.30
2023-02-08T08:54:24.217Z,18.70
2023-02-08T08:56:52.573Z,20.50
2023-02-08T08:59:21.049Z,15.40
2023-02-08T09:01:49.791Z,15.20
2023-02-08T09:04:18.227Z,21.70
2023-02-08T09:06:46.892Z,27.10
2023-02-08T09:09:15.386Z,17.90
2023-02-08T09:11:43.551Z,17.00
2023-02-08T09:14:12.034Z,19.10
2023-02-08T09:16:41.535Z,24.60
2023-02-08T09:19:10.327Z,24.50
2023-02-08T09:21:38.416Z,23.20
2023-02-08T09:24:07.082Z,25.40
2023-02-08T09:26:35.566Z,17.80
2023-02-08T09:29:04.353Z,25.00
2023-02-08T09:31:37.878Z,21.70
2023-02-08T09:46:11.098Z,24.60
2023-02-08T09:48:38.636Z,19.70
2023-02-08T09:51:10.849Z,23.60
2023-02-08T09:53:40.949Z,18.60
2023-02-08T09:56:11.211Z,21.40
2023-02-08T09:58:43.892Z,24.90
2023-02-08T10:01:28.240Z,20.80
2023-02-08T10:03:59.348Z,23.20
2023-02-08T10:06:26.228Z,25.20
2023-02-08T10:08:54.820Z,25.10
2023-02-08T10:11:29.966Z,25.30
2023-02-08T10:14:16.865Z,18.90
2023-02-08T10:16:55.936Z,20.70
2023-02-08T10:19:54.926Z,27.10
2023-02-08T10:22:31.313Z,20.60
2023-02-08T10:25:30.554Z,19.50
2023-02-08T10:28:18.715Z,21.90
2023-02-08T10:30:55.720Z,14.40
2023-02-08T10:33:34.124Z,16.20
2023-02-08T10:36:12.382Z,14.30
2023-02-08T10:38:46.380Z,22.50
2023-02-08T10:41:16.848Z,21.60
2023-02-08T10:44:00.276Z,19.00
2023-02-08T10:46:41.632Z,17.10
2023-02-08T10:49:19.670Z,21.80
2023-02-08T10:51:47.463Z,18.40
2023-02-08T10:54:14.838Z,17.20
2023-02-08T10:56:56.904Z,26.30
2023-02-08T10:59:27.242Z,19.80
2023-02-08T11:01:54.160Z,15.00
2023-02-08T11:04:21.150Z,22.20
2023-02-08T11:06:49.620Z,11.10
2023-02-08T11:09:21.246Z,18.60
2023-02-08T11:11:52.838Z,9.40
2023-02-08T11:14:30.365Z,13.00
2023-02-08T11:17:04.882Z,11.00
2023-02-08T11:19:41.992Z,9.00
2023-02-08T11:22:15.450Z,13.50
2023-02-08T11:24:42.985Z,10.60
2023-02-08T11:27:18.162Z,14.10
2023-02-08T11:29:45.144Z,14.00
2023-02-08T11:32:17.210Z,13.70
2023-02-08T11:34:44.456Z,13.00
2023-02-08T11:37:17.073Z,12.80
2023-02-08T11:40:05.553Z,10.30
2023-02-08T11:42:35.788Z,13.00
2023-02-08T11:45:02.675Z,13.10
2023-02-08T11:47:32.569Z,10.60
2023-02-08T11:50:06.886Z,12.20
2023-02-08T11:52:38.849Z,11.00
2023-02-08T11:55:18.180Z,17.30
2023-02-08T11:58:25.239Z,12.60
2023-02-08T12:01:09.392Z,18.90
2023-02-08T12:03:40.323Z,14.00
2023-02-08T12:06:22.564Z,15.60
2023-02-08T12:09:08.765Z,13.60
2023-02-08T12:11:48.337Z,12.50
2023-02-08T12:14:24.127Z,11.90
2023-02-08T12:17:02.099Z,12.70
2023-02-08T12:19:29.413Z,17.50
2023-02-08T12:22:16.938Z,13.00
2023-02-08T12:25:10.019Z,13.90
2023-02-08T12:27:36.944Z,14.50
2023-02-08T12:30:04.097Z,13.40
2023-02-08T12:32:40.816Z,12.80
2023-02-08T12:36:01.786Z,18.90
2023-02-08T12:39:19.888Z,15.30
2023-02-08T12:42:15.851Z,19.80
2023-02-08T12:44:46.329Z,21.80
2023-02-08T12:47:33.641Z,20.70
2023-02-08T12:50:08.742Z,19.80
2023-02-08T12:52:38.547Z,20.30
2023-02-08T12:55:38.367Z,23.00
2023-02-08T12:58:34.588Z,22.10
2023-02-08T13:01:16.578Z,24.00
2023-02-08T13:03:51.940Z,23.30
2023-02-08T13:06:23.541Z,17.50
2023-02-08T13:09:18.905Z,21.20
2023-02-08T13:11:52.402Z,22.10
2023-02-08T13:14:31.737Z,34.30
2023-02-08T13:17:04.546Z,24.50
2023-02-08T13:19:38.153Z,36.20
2023-02-08T13:22:06.454Z,35.30
2023-02-08T13:24:35.296Z,34.60
2023-02-08T13:27:02.850Z,34.00
2023-02-08T13:29:30.109Z,37.20
2023-02-08T13:32:00.125Z,19.90
2023-02-08T13:34:34.392Z,33.00
2023-02-08T13:37:05.572Z,22.10
2023-02-08T13:39:39.141Z,33.80
2023-02-08T13:42:06.750Z,20.90
2023-02-08T13:44:37.831Z,33.60
2023-02-08T13:47:06.168Z,24.20
2023-02-08T13:49:43.565Z,33.00
2023-02-08T13:54:38.280Z,21.20
2023-02-08T13:57:43.927Z,22.50
2023-02-08T14:00:27.388Z,21.70
2023-02-08T14:02:59.234Z,20.90
2023-02-08T14:05:47.958Z,37.60
2023-02-08T14:08:43.698Z,31.40
2023-02-08T14:11:36.457Z,22.40
2023-02-08T14:14:14.960Z,19.10
2023-02-08T14:16:43.881Z,28.40
2023-02-08T14:19:20.117Z,37.30
2023-02-08T14:24:23.024Z,19.70
2023-02-08T14:26:50.048Z,20.10
2023-02-08T14:29:27.229Z,20.90
2023-02-08T14:31:54.937Z,21.60
2023-02-08T14:34:33.102Z,22.10
2023-02-08T14:37:06.310Z,15.80
2023-02-08T14:39:34.387Z,18.40
2023-02-08T14:42:07.944Z,21.80
2023-02-08T14:44:37.593Z,22.70
2023-02-08T14:47:12.342Z,23.70
2023-02-08T14:49:41.520Z,16.20
2023-02-08T14:52:35.508Z,19.80
2023-02-08T14:55:05.804Z,18.40
2023-02-08T14:57:34.717Z,22.60
2023-02-08T15:00:05.498Z,17.40
2023-02-08T15:02:32.708Z,22.70
2023-02-08T15:05:01.662Z,18.50
2023-02-08T15:07:41.546Z,20.80
2023-02-08T15:10:13.508Z,14.30
2023-02-08T15:12:42.679Z,16.60
2023-02-08T15:15:38.119Z,21.00
2023-02-08T15:18:05.808Z,14.70
2023-02-08T15:20:34.201Z,15.10
2023-02-08T15:23:02.388Z,15.60
2023-02-08T15:25:36.358Z,16.90
2023-02-08T15:28:23.784Z,19.50
2023-02-08T15:31:10.487Z,17.10
2023-02-08T15:33:38.267Z,21.40
2023-02-08T15:36:07.340Z,16.90
2023-02-08T15:38:40.837Z,19.90
2023-02-08T15:41:13.186Z,15.50
2023-02-08T15:43:40.646Z,17.30
2023-02-08T15:46:25.292Z,21.50
2023-02-08T15:48:52.791Z,19.10
2023-02-08T15:51:22.565Z,16.50
2023-02-08T15:53:54.008Z,16.00
2023-02-08T15:56:37.130Z,20.50
2023-02-08T15:59:07.191Z,19.30
2023-02-08T16:01:34.097Z,21.40
2023-02-08T16:04:05.338Z,22.40
2023-02-08T16:06:38.374Z,18.80
2023-02-08T16:09:06.340Z,18.10
2023-02-08T16:11:34.204Z,19.00
2023-02-08T16:14:02.920Z,18.30
2023-02-08T16:16:43.347Z,23.40
2023-02-08T16:19:30.983Z,19.00
2023-02-08T16:22:20.253Z,18.40
2023-02-08T16:24:50.271Z,21.00
2023-02-08T16:27:29.728Z,17.00
2023-02-08T16:29:56.745Z,19.10
2023-02-08T16:32:35.436Z,15.50
2023-02-08T16:35:24.138Z,32.60
2023-02-08T16:38:00.036Z,21.10
2023-02-08T16:40:42.819Z,18.80
2023-02-08T16:43:27.067Z,19.30
2023-02-08T16:46:16.414Z,18.20
2023-02-08T16:48:47.703Z,16.10
2023-02-08T16:51:18.211Z,22.60
2023-02-08T16:53:47.251Z,23.40
2023-02-08T16:56:14.048Z,19.90
2023-02-08T16:58:43.045Z,17.60
2023-02-08T17:01:13.441Z,18.40
2023-02-08T17:03:40.921Z,22.80
2023-02-08T17:06:17.398Z,25.40
2023-02-08T17:08:44.866Z,18.50
2023-02-08T17:11:11.640Z,22.10
2023-02-08T17:13:38.640Z,21.90
2023-02-08T17:16:06.228Z,23.40
2023-02-08T17:18:34.954Z,26.50
2023-02-08T17:21:02.060Z,29.10
2023-02-08T17:23:29.085Z,28.40
2023-02-08T17:25:56.284Z,27.50
2023-02-08T17:28:23.753Z,24.90
2023-02-08T17:30:52.448Z,27.70
2023-02-08T17:33:19.840Z,23.30
2023-02-08T17:35:51.410Z,29.30
2023-02-08T17:38:19.253Z,25.20
2023-02-08T17:40:46.446Z,25.00
2023-02-08T17:43:13.453Z,23.80
2023-02-08T17:45:41.469Z,26.80
2023-02-08T17:48:08.404Z,25.90
2023-02-08T17:50:35.826Z,28.40
2023-02-08T17:53:03.401Z,24.70
2023-02-08T17:55:30.547Z,25.70
2023-02-08T17:57:58.199Z,27.10
2023-02-08T18:00:25.330Z,25.40
2023-02-08T18:02:53.662Z,19.70
2023-02-08T18:05:22.619Z,24.90
2023-02-08T18:07:50.240Z,25.30
2023-02-08T18:10:17.156Z,26.70
2023-02-08T18:12:44.272Z,25.60
2023-02-08T18:15:13.570Z,24.10
2023-02-08T18:17:41.112Z,26.20
2023-02-08T18:20:08.895Z,18.70
2023-02-08T18:22:37.478Z,31.00
2023-02-08T18:25:04.949Z,27.40
2023-02-08T18:27:33.527Z,21.30
2023-02-08T18:30:00.581Z,21.10
2023-02-08T18:32:27.671Z,17.30
2023-02-08T18:34:54.775Z,18.70
2023-02-08T18:37:21.761Z,27.70
2023-02-08T18:39:48.965Z,26.00
2023-02-08T18:42:16.131Z,21.60
2023-02-08T18:44:43.419Z,21.70
2023-02-08T18:47:10.209Z,20.70
2023-02-08T18:49:39.985Z,20.60
2023-02-08T18:52:10.979Z,23.70
2023-02-08T18:54:38.520Z,24.50
2023-02-08T18:57:05.909Z,22.00
2023-02-08T18:59:32.977Z,22.80
2023-02-08T19:02:01.694Z,18.60
2023-02-08T19:04:29.067Z,14.90
2023-02-08T19:06:58.876Z,11.10
2023-02-08T19:09:26.072Z,18.40
2023-02-08T19:11:54.199Z,13.70
2023-02-08T19:14:21.125Z,14.60
2023-02-08T19:16:48.298Z,16.20
2023-02-08T19:19:15.143Z,18.60
2023-02-08T19:21:42.290Z,11.20
2023-02-08T19:24:13.121Z,32.70
2023-02-08T19:26:41.508Z,23.90
2023-02-08T19:29:11.019Z,18.80
2023-02-08T19:31:38.839Z,20.50
2023-02-08T19:34:07.668Z,16.80
2023-02-08T19:36:45.953Z,26.90
2023-02-08T19:39:15.465Z,25.00
2023-02-08T19:41:42.694Z,17.10
2023-02-08T19:44:11.778Z,17.20
2023-02-08T19:46:39.409Z,21.00
2023-02-08T19:49:06.963Z,18.00
2023-02-08T19:51:36.301Z,19.30
2023-02-08T19:54:06.144Z,16.10
2023-02-08T19:56:35.667Z,15.90
2023-02-08T19:59:03.762Z,21.90
2023-02-08T20:01:32.462Z,21.30
2023-02-08T20:03:59.400Z,17.00
2023-02-08T20:06:34.426Z,19.20
2023-02-08T20:09:01.675Z,18.10
2023-02-08T20:11:33.849Z,17.50
2023-02-08T20:14:01.272Z,16.40
2023-02-08T20:16:31.640Z,15.80
2023-02-08T20:18:59.824Z,15.20
2023-02-08T20:21:27.253Z,16.90
2023-02-08T20:23:54.199Z,19.00
2023-02-08T20:26:27.980Z,28.00
2023-02-08T20:28:56.485Z,17.90
2023-02-08T20:31:25.194Z,21.70
2023-02-08T20:33:52.222Z,13.80
2023-02-08T20:36:21.831Z,15.10
2023-02-08T20:38:51.113Z,16.90
2023-02-08T20:41:20.191Z,15.30
2023-02-08T20:43:47.397Z,16.90
2023-02-08T20:46:20.140Z,17.00
2023-02-08T20:48:47.817Z,17.40
2023-02-08T20:51:16.740Z,19.80
2023-02-08T20:53:44.317Z,21.00
2023-02-08T20:56:13.467Z,19.40
2023-02-08T20:58:40.951Z,16.30
2023-02-08T21:01:09.046Z,23.70
2023-02-08T21:03:36.419Z,24.50
2023-02-08T21:06:16.571Z,17.40
2023-02-08T21:08:43.762Z,20.90
2023-02-08T21:11:11.847Z,24.50
2023-02-08T21:13:39.295Z,37.60
2023-02-08T21:16:07.166Z,23.30
2023-02-08T21:18:35.437Z,22.50
2023-02-08T21:21:03.211Z,21.90
2023-02-08T21:23:30.452Z,21.00
2023-02-08T21:25:58.833Z,20.10
2023-02-08T21:28:25.843Z,19.70
2023-02-08T21:31:01.204Z,23.70
2023-02-08T21:33:29.714Z,17.30
2023-02-08T21:35:56.652Z,19.40
2023-02-08T21:38:23.492Z,20.00
2023-02-08T21:40:50.332Z,22.10
2023-02-08T21:43:17.150Z,21.10
2023-02-08T21:45:44.219Z,25.40
2023-02-08T21:48:11.685Z,23.40
2023-02-08T22:04:57.520Z,29.70
2023-02-08T22:07:26.223Z,30.00
2023-02-08T22:09:54.628Z,31.00
2023-02-08T22:12:23.623Z,26.40
2023-02-08T22:14:57.741Z,37.90
2023-02-08T22:17:26.374Z,32.70
2023-02-08T22:19:54.736Z,29.20
2023-02-08T22:22:23.104Z,20.60
2023-02-08T22:24:51.459Z,16.80
2023-02-08T22:27:19.940Z,25.00
2023-02-08T22:29:48.014Z,17.70
2023-02-08T22:32:17.238Z,20.50
2023-02-08T22:34:48.970Z,23.40
2023-02-08T22:37:17.248Z,23.70
2023-02-08T22:39:45.896Z,16.90
2023-02-08T22:42:14.999Z,20.90
2023-02-08T22:44:44.426Z,22.50
2023-02-08T22:47:13.324Z,22.40
2023-02-08T22:49:42.064Z,27.50
2023-02-08T22:52:10.718Z,39.00
2023-02-08T22:54:39.070Z,30.70
2023-02-08T22:57:09.783Z,28.10
2023-02-08T22:59:38.500Z,27.80
2023-02-08T23:02:07.084Z,27.20
2023-02-08T23:04:37.304Z,28.40
2023-02-08T23:07:05.583Z,27.60
2023-02-08T23:09:33.963Z,28.40
2023-02-08T23:12:02.448Z,23.20
2023-02-08T23:14:30.859Z,32.00
2023-02-08T23:16:59.168Z,39.30
2023-02-08T23:19:27.573Z,33.40
2023-02-08T23:21:59.846Z,24.80
2023-02-08T23:24:28.025Z,22.90
2023-02-08T23:26:56.328Z,31.20
2023-02-08T23:29:25.300Z,27.40
2023-02-08T23:31:53.717Z,28.40
2023-02-08T23:34:21.954Z,31.90
2023-02-08T23:36:50.456Z,29.60
2023-02-08T23:39:19.212Z,29.00
2023-02-08T23:41:47.495Z,28.50
2023-02-08T23:44:16.592Z,42.50
2023-02-08T23:46:45.030Z,40.30
2023-02-08T23:49:13.349Z,34.30
2023-02-08T23:51:41.930Z,27.50
2023-02-08T23:54:10.463Z,29.30
2023-02-08T23:56:38.897Z,29.30
2023-02-08T23:59:08.503Z,28.40
